createdAt,value
2023-01-28T00:02:14.192Z,2.70
2023-01-28T00:05:01.523Z,2.80
2023-01-28T00:07:51.652Z,2.17
2023-01-28T00:10:45.820Z,2.30
2023-01-28T00:13:35.781Z,2.60
2023-01-28T00:16:28.722Z,2.70
2023-01-28T00:19:24.013Z,2.40
2023-01-28T00:22:14.306Z,2.10
2023-01-28T00:25:07.731Z,2.20
2023-01-28T00:28:21.759Z,2.27
2023-01-28T00:31:16.142Z,2.67
2023-01-28T00:34:05.974Z,3.37
2023-01-28T00:37:04.178Z,3.47
2023-01-28T00:39:52.750Z,3.90
2023-01-28T00:42:41.003Z,4.50
2023-01-28T00:45:30.736Z,5.17
2023-01-28T00:48:18.230Z,4.40
2023-01-28T00:51:06.927Z,3.97
2023-01-28T00:53:54.190Z,4.53
2023-01-28T00:56:41.555Z,4.53
2023-01-28T00:59:28.950Z,4.53
2023-01-28T01:02:17.836Z,5.33
2023-01-28T01:05:06.901Z,5.63
2023-01-28T01:07:54.340Z,5.20
2023-01-28T01:10:41.819Z,5.00
2023-01-28T01:13:29.569Z,4.43
2023-01-28T01:16:17.709Z,4.47
2023-01-28T01:19:07.296Z,4.07
2023-01-28T01:21:54.705Z,3.70
2023-01-28T01:24:41.970Z,3.30
2023-01-28T01:27:29.380Z,3.70
2023-01-28T01:30:17.127Z,3.17
2023-01-28T01:33:04.351Z,4.10
2023-01-28T01:35:56.354Z,3.60
2023-01-28T01:38:44.095Z,3.40
2023-01-28T01:41:32.417Z,3.00
2023-01-28T01:44:38.675Z,3.80
2023-01-28T01:47:27.570Z,3.57
2023-01-28T01:50:19.960Z,4.03
2023-01-28T01:53:11.762Z,3.93
2023-01-28T01:55:59.989Z,4.50
2023-01-28T01:58:49.160Z,3.70
2023-01-28T02:01:36.585Z,3.70
2023-01-28T02:04:25.005Z,3.83
2023-01-28T02:07:13.742Z,3.60
2023-01-28T02:10:02.344Z,3.37
2023-01-28T02:12:52.123Z,2.73
2023-01-28T02:15:40.231Z,3.33
2023-01-28T02:18:27.684Z,3.97
2023-01-28T02:21:33.943Z,3.13
2023-01-28T02:24:30.916Z,3.10
2023-01-28T02:27:26.263Z,2.73
2023-01-28T02:30:21.011Z,2.70
2023-01-28T02:33:11.346Z,3.70
2023-01-28T02:36:00.473Z,2.60
2023-01-28T02:38:49.617Z,3.10
2023-01-28T02:41:39.851Z,2.87
2023-01-28T02:44:27.516Z,3.23
2023-01-28T02:47:35.260Z,3.07
2023-01-28T02:50:24.243Z,3.07
2023-01-28T02:53:35.911Z,2.57
2023-01-28T02:56:29.332Z,3.20
2023-01-28T02:59:35.515Z,3.10
2023-01-28T03:02:31.281Z,3.00
2023-01-28T03:05:22.422Z,2.63
2023-01-28T03:08:24.380Z,2.83
2023-01-28T03:11:29.166Z,2.70
2023-01-28T03:14:35.942Z,2.87
2023-01-28T03:17:44.074Z,2.77
2023-01-28T03:20:54.517Z,2.67
2023-01-28T03:24:01.828Z,3.30
2023-01-28T03:27:10.571Z,2.57
2023-01-28T03:30:17.722Z,2.97
2023-01-28T03:33:23.447Z,2.77
2023-01-28T03:36:30.226Z,4.10
2023-01-28T03:39:18.337Z,3.67
2023-01-28T03:42:07.085Z,4.73
2023-01-28T03:44:57.535Z,3.13
2023-01-28T03:47:45.000Z,3.10
2023-01-28T03:50:32.720Z,2.57
2023-01-28T03:53:24.698Z,2.77
2023-01-28T03:56:18.583Z,2.50
2023-01-28T03:59:06.588Z,2.17
2023-01-28T04:01:55.367Z,2.73
2023-01-28T04:04:43.264Z,2.53
2023-01-28T04:07:30.794Z,2.77
2023-01-28T04:10:34.967Z,2.47
2023-01-28T04:13:30.153Z,2.53
2023-01-28T04:16:18.158Z,2.20
2023-01-28T04:19:05.895Z,2.50
2023-01-28T04:21:55.015Z,1.90
2023-01-28T04:24:42.285Z,2.27
2023-01-28T04:27:31.587Z,1.70
2023-01-28T04:30:26.254Z,1.90
2023-01-28T04:33:25.569Z,1.60
2023-01-28T04:36:13.198Z,2.13
2023-01-28T04:39:03.682Z,1.57
2023-01-28T04:41:57.072Z,1.60
2023-01-28T04:44:59.318Z,1.70
2023-01-28T04:48:13.027Z,1.40
2023-01-28T04:51:36.091Z,1.80
2023-01-28T04:54:43.809Z,1.50
2023-01-28T04:57:31.686Z,1.63
2023-01-28T05:00:21.503Z,1.37
2023-01-28T05:03:09.161Z,1.50
2023-01-28T05:05:56.468Z,1.50
2023-01-28T05:08:54.436Z,1.47
2023-01-28T05:11:41.890Z,1.87
2023-01-28T05:14:29.353Z,1.50
2023-01-28T05:17:27.909Z,1.57
2023-01-28T05:20:16.323Z,1.63
2023-01-28T05:23:06.346Z,1.87
2023-01-28T05:26:29.386Z,1.60
2023-01-28T05:29:17.017Z,1.80
2023-01-28T05:32:04.363Z,1.63
2023-01-28T05:34:53.612Z,1.80
2023-01-28T05:37:41.137Z,1.77
2023-01-28T05:40:28.495Z,2.20
2023-01-28T05:43:15.899Z,2.03
2023-01-28T05:46:12.893Z,1.80
2023-01-28T05:49:19.100Z,1.60
2023-01-28T05:52:33.220Z,2.07
2023-01-28T05:55:22.950Z,1.90
2023-01-28T05:58:10.165Z,2.17
2023-01-28T06:00:57.537Z,2.67
2023-01-28T06:03:50.845Z,2.20
2023-01-28T06:06:39.360Z,2.23
2023-01-28T06:09:28.269Z,2.13
2023-01-28T06:12:16.020Z,2.10
2023-01-28T06:15:19.303Z,2.37
2023-01-28T06:18:27.046Z,3.10
2023-01-28T06:21:14.648Z,3.40
2023-01-28T06:24:02.643Z,3.17
2023-01-28T06:26:53.143Z,3.90
2023-01-28T06:29:40.654Z,3.53
2023-01-28T06:32:28.060Z,4.77
2023-01-28T06:35:15.575Z,5.03
2023-01-28T06:38:04.564Z,4.80
2023-01-28T06:40:56.101Z,7.40
2023-01-28T06:43:45.186Z,8.00
2023-01-28T06:46:32.799Z,7.57
2023-01-28T06:49:20.597Z,6.70
2023-01-28T06:52:08.469Z,7.50
2023-01-28T06:54:55.823Z,6.07
2023-01-28T06:57:45.159Z,6.80
2023-01-28T07:00:34.488Z,6.67
2023-01-28T07:03:22.501Z,5.53
2023-01-28T07:06:13.302Z,5.57
2023-01-28T07:09:00.894Z,5.87
2023-01-28T07:11:48.214Z,5.60
2023-01-28T07:14:35.541Z,5.03
2023-01-28T07:17:24.502Z,6.67
2023-01-28T07:20:14.660Z,7.37
2023-01-28T07:23:02.539Z,6.03
2023-01-28T07:25:49.980Z,8.27
2023-01-28T07:28:37.561Z,6.80
2023-01-28T07:31:25.139Z,6.43
2023-01-28T07:34:14.016Z,6.53
2023-01-28T07:37:01.466Z,6.57
2023-01-28T07:39:49.123Z,6.60
2023-01-28T07:42:36.455Z,6.47
2023-01-28T07:45:28.659Z,6.13
2023-01-28T07:48:16.426Z,5.53
2023-01-28T07:51:05.576Z,5.17
2023-01-28T07:53:52.949Z,6.70
2023-01-28T07:56:41.750Z,6.33
2023-01-28T07:59:29.312Z,5.50
2023-01-28T08:02:17.097Z,5.70
2023-01-28T08:05:04.781Z,5.00
2023-01-28T08:07:53.783Z,5.10
2023-01-28T08:10:41.647Z,4.80
2023-01-28T08:13:29.189Z,5.60
2023-01-28T08:16:16.814Z,3.93
2023-01-28T08:19:04.116Z,3.17
2023-01-28T08:21:51.683Z,4.17
2023-01-28T08:24:40.478Z,3.50
2023-01-28T08:27:28.168Z,2.83
2023-01-28T08:30:16.161Z,3.30
2023-01-28T08:33:03.785Z,3.20
2023-01-28T08:35:51.195Z,3.40
2023-01-28T08:38:38.502Z,3.17
2023-01-28T08:41:27.160Z,4.40
2023-01-28T08:44:14.814Z,3.73
2023-01-28T08:47:02.266Z,4.13
2023-01-28T08:49:49.587Z,4.60
2023-01-28T08:52:38.093Z,4.47
2023-01-28T08:55:26.253Z,5.20
2023-01-28T08:58:16.063Z,4.43
2023-01-28T09:01:05.807Z,5.30
2023-01-28T09:03:53.394Z,4.57
2023-01-28T09:06:40.713Z,4.73
2023-01-28T09:09:28.172Z,4.77
2023-01-28T09:12:16.911Z,4.30
2023-01-28T09:15:06.193Z,3.90
2023-01-28T09:17:59.262Z,3.70
2023-01-28T09:20:46.803Z,3.73
2023-01-28T09:23:35.764Z,3.90
2023-01-28T09:26:23.412Z,4.20
2023-01-28T09:29:10.847Z,4.00
2023-01-28T09:31:59.552Z,3.50
2023-01-28T09:34:47.175Z,3.30
2023-01-28T09:37:34.654Z,2.87
2023-01-28T09:40:26.097Z,2.57
2023-01-28T09:43:25.698Z,2.50
2023-01-28T09:46:14.183Z,2.23
2023-01-28T09:49:05.110Z,2.33
2023-01-28T09:51:54.847Z,2.60
2023-01-28T09:54:43.919Z,2.17
2023-01-28T09:57:33.482Z,1.87
2023-01-28T10:00:23.011Z,1.60
2023-01-28T10:03:22.476Z,1.10
2023-01-28T10:06:27.924Z,1.50
2023-01-28T10:09:29.099Z,2.00
2023-01-28T10:12:24.007Z,2.00
2023-01-28T10:15:22.058Z,1.60
2023-01-28T10:18:17.668Z,1.77
2023-01-28T10:21:10.089Z,1.50
2023-01-28T10:24:01.278Z,1.40
2023-01-28T10:26:49.929Z,1.53
2023-01-28T10:29:39.790Z,1.30
2023-01-28T10:32:29.928Z,1.30
2023-01-28T10:35:17.771Z,1.20
2023-01-28T10:38:08.379Z,1.10
2023-01-28T10:40:57.116Z,1.00
2023-01-28T10:43:45.847Z,1.17
2023-01-28T10:46:34.751Z,1.23
2023-01-28T10:49:25.777Z,1.10
2023-01-28T10:52:13.745Z,1.20
2023-01-28T10:55:02.103Z,1.37
2023-01-28T10:57:50.149Z,1.23
2023-01-28T11:00:40.063Z,1.37
2023-01-28T11:03:29.052Z,1.40
2023-01-28T11:06:25.443Z,1.10
2023-01-28T11:09:22.710Z,1.00
2023-01-28T11:12:14.700Z,1.00
2023-01-28T11:15:03.120Z,1.50
2023-01-28T11:17:57.119Z,1.50
2023-01-28T11:20:50.986Z,1.40
2023-01-28T11:23:39.632Z,2.40
2023-01-28T11:26:28.745Z,1.10
2023-01-28T11:29:24.204Z,1.17
2023-01-28T11:32:19.050Z,1.00
2023-01-28T11:35:08.612Z,1.60
2023-01-28T11:37:56.294Z,1.97
2023-01-28T11:40:51.163Z,1.30
2023-01-28T11:43:38.974Z,1.30
2023-01-28T11:46:52.785Z,1.27
2023-01-28T11:49:45.512Z,1.20
2023-01-28T11:53:04.417Z,1.00
2023-01-28T11:55:54.414Z,0.80
2023-01-28T11:58:46.541Z,0.93
2023-01-28T12:01:38.752Z,1.20
2023-01-28T12:04:35.530Z,0.93
2023-01-28T12:07:28.671Z,1.50
2023-01-28T12:10:21.631Z,1.90
2023-01-28T12:13:14.670Z,1.03
2023-01-28T12:16:12.547Z,1.10
2023-01-28T12:19:09.025Z,1.00
2023-01-28T12:22:10.807Z,1.33
2023-01-28T12:25:07.095Z,0.80
2023-01-28T12:28:00.684Z,1.10
2023-01-28T12:30:59.764Z,1.20
2023-01-28T12:34:00.825Z,1.60
2023-01-28T12:36:52.291Z,1.60
2023-01-28T12:39:45.697Z,1.20
2023-01-28T12:42:37.273Z,1.70
2023-01-28T12:45:29.411Z,1.20
2023-01-28T12:48:19.816Z,1.47
2023-01-28T12:51:12.151Z,2.20
2023-01-28T12:54:02.457Z,1.50
2023-01-28T12:56:52.683Z,1.10
2023-01-28T12:59:45.326Z,1.03
2023-01-28T13:02:36.551Z,1.10
2023-01-28T13:05:27.530Z,1.20
2023-01-28T13:08:19.022Z,1.00
2023-01-28T13:11:07.293Z,1.40
2023-01-28T13:13:55.241Z,1.57
2023-01-28T13:16:42.727Z,1.30
2023-01-28T13:19:39.632Z,1.50
2023-01-28T13:22:29.159Z,1.37
2023-01-28T13:25:23.930Z,1.03
2023-01-28T13:28:27.916Z,1.80
2023-01-28T13:31:17.570Z,1.40
2023-01-28T13:34:06.213Z,1.20
2023-01-28T13:36:55.595Z,1.40
2023-01-28T13:39:48.155Z,1.50
2023-01-28T13:42:35.722Z,1.10
2023-01-28T13:45:24.602Z,1.63
2023-01-28T13:48:24.732Z,1.00
2023-01-28T13:51:18.363Z,1.40
2023-01-28T13:54:09.062Z,1.80
2023-01-28T13:57:06.599Z,1.50
2023-01-28T13:59:57.382Z,1.40
2023-01-28T14:03:05.347Z,2.33
2023-01-28T14:06:07.750Z,1.33
2023-01-28T14:09:05.914Z,1.93
2023-01-28T14:12:20.334Z,1.57
2023-01-28T14:15:22.781Z,1.40
2023-01-28T14:18:16.667Z,1.27
2023-01-28T14:21:05.609Z,1.47
2023-01-28T14:23:54.688Z,1.37
2023-01-28T14:26:47.034Z,1.57
2023-01-28T14:29:43.906Z,1.43
2023-01-28T14:32:32.950Z,1.73
2023-01-28T14:35:24.063Z,1.83
2023-01-28T14:38:15.109Z,1.40
2023-01-28T14:41:02.708Z,1.50
2023-01-28T14:43:50.155Z,1.50
2023-01-28T14:46:42.967Z,1.23
2023-01-28T14:49:36.467Z,1.10
2023-01-28T14:52:38.115Z,1.47
2023-01-28T14:55:32.089Z,1.23
2023-01-28T14:58:22.600Z,1.03
2023-01-28T15:01:21.061Z,1.00
2023-01-28T15:04:22.791Z,1.40
2023-01-28T15:07:17.825Z,1.00
2023-01-28T15:10:07.959Z,1.40
2023-01-28T15:12:56.815Z,1.13
2023-01-28T15:15:49.610Z,0.90
2023-01-28T15:18:38.033Z,1.00
2023-01-28T15:21:26.576Z,1.47
2023-01-28T15:24:17.194Z,2.20
2023-01-28T15:27:07.917Z,1.20
2023-01-28T15:29:56.379Z,1.47
2023-01-28T15:32:43.882Z,1.10
2023-01-28T15:35:31.606Z,1.20
2023-01-28T15:38:19.233Z,1.00
2023-01-28T15:41:07.418Z,0.87
2023-01-28T15:43:56.377Z,0.87
2023-01-28T15:46:44.142Z,0.90
2023-01-28T15:49:33.611Z,1.23
2023-01-28T15:52:21.519Z,1.30
2023-01-28T15:55:10.013Z,1.60
2023-01-28T15:57:57.912Z,1.30
2023-01-28T16:00:46.928Z,5.40
2023-01-28T16:03:36.285Z,1.27
2023-01-28T16:06:24.197Z,1.17
2023-01-28T16:09:19.136Z,1.93
2023-01-28T16:12:07.845Z,1.20
2023-01-28T16:14:57.146Z,1.20
2023-01-28T16:17:48.547Z,1.50
2023-01-28T16:20:36.005Z,1.20
2023-01-28T16:23:24.456Z,1.43
2023-01-28T16:26:22.301Z,1.43
2023-01-28T16:29:15.245Z,1.30
2023-01-28T16:32:04.186Z,1.60
2023-01-28T16:34:53.030Z,1.20
2023-01-28T16:37:42.295Z,1.40
2023-01-28T16:40:30.171Z,1.10
2023-01-28T16:43:18.112Z,1.23
2023-01-28T16:46:09.228Z,1.43
2023-01-28T16:48:56.971Z,1.27
2023-01-28T16:51:45.781Z,1.10
2023-01-28T16:54:34.607Z,1.33
2023-01-28T16:57:23.208Z,2.73
2023-01-28T17:00:18.271Z,2.47
2023-01-28T17:03:06.033Z,1.20
2023-01-28T17:05:53.814Z,1.70
2023-01-28T17:08:42.582Z,1.60
2023-01-28T17:11:30.510Z,1.33
2023-01-28T17:14:18.096Z,1.33
2023-01-28T17:17:05.429Z,1.30
2023-01-28T17:19:52.930Z,1.40
2023-01-28T17:22:40.282Z,1.40
2023-01-28T17:25:29.064Z,2.60
2023-01-28T17:28:16.725Z,2.17
2023-01-28T17:31:07.064Z,2.00
2023-01-28T17:33:55.746Z,2.40
2023-01-28T17:36:43.391Z,2.23
2023-01-28T17:39:30.650Z,2.27
2023-01-28T17:42:19.381Z,2.87
2023-01-28T17:45:07.266Z,2.07
2023-01-28T17:47:54.623Z,1.50
2023-01-28T17:50:42.106Z,2.63
2023-01-28T17:53:29.431Z,3.10
2023-01-28T17:56:20.962Z,1.43
2023-01-28T17:59:11.632Z,2.23
2023-01-28T18:01:59.136Z,2.20
2023-01-28T18:04:46.494Z,1.60
2023-01-28T18:07:34.440Z,2.00
2023-01-28T18:10:21.779Z,1.80
2023-01-28T18:13:09.153Z,1.40
2023-01-28T18:15:58.341Z,1.50
2023-01-28T18:18:46.161Z,2.10
2023-01-28T18:21:51.268Z,1.67
2023-01-28T18:24:39.961Z,2.20
2023-01-28T18:27:27.479Z,1.90
2023-01-28T18:30:16.322Z,1.83
2023-01-28T18:33:05.765Z,2.07
2023-01-28T18:35:53.379Z,1.37
2023-01-28T18:38:40.806Z,1.93
2023-01-28T18:41:28.207Z,1.90
2023-01-28T18:44:16.089Z,1.77
2023-01-28T18:47:03.794Z,2.10
2023-01-28T18:49:52.526Z,1.87
2023-01-28T18:52:40.379Z,1.60
2023-01-28T18:55:27.596Z,1.50
2023-01-28T18:58:15.283Z,1.60
2023-01-28T19:01:04.128Z,1.90
2023-01-28T19:03:51.571Z,1.80
2023-01-28T19:06:40.337Z,1.50
2023-01-28T19:09:27.707Z,1.80
2023-01-28T19:12:15.359Z,1.90
2023-01-28T19:15:02.901Z,1.90
2023-01-28T19:17:50.426Z,1.80
2023-01-28T19:20:37.747Z,1.60
2023-01-28T19:23:26.596Z,1.83
2023-01-28T19:26:14.393Z,1.60
2023-01-28T19:29:02.556Z,2.00
2023-01-28T19:31:50.272Z,2.07
2023-01-28T19:34:37.525Z,1.80
2023-01-28T19:37:24.852Z,1.80
2023-01-28T19:40:14.303Z,1.80
2023-01-28T19:43:01.689Z,1.50
2023-01-28T19:45:56.680Z,1.80
2023-01-28T19:48:44.417Z,1.60
2023-01-28T19:51:31.894Z,1.90
2023-01-28T19:54:19.401Z,1.80
2023-01-28T19:57:08.158Z,1.70
2023-01-28T19:59:55.791Z,2.00
2023-01-28T20:02:43.252Z,2.80
2023-01-28T20:05:30.474Z,3.37
2023-01-28T20:08:17.821Z,3.60
2023-01-28T20:11:05.703Z,4.20
2023-01-28T20:13:54.891Z,4.27
2023-01-28T20:16:42.718Z,3.33
2023-01-28T20:19:30.241Z,3.53
2023-01-28T20:22:17.947Z,4.83
2023-01-28T20:25:05.413Z,3.10
2023-01-28T20:27:52.999Z,2.10
2023-01-28T20:30:41.710Z,2.30
2023-01-28T20:33:29.012Z,2.17
2023-01-28T20:36:16.685Z,2.33
2023-01-28T20:39:04.208Z,2.37
2023-01-28T20:41:51.634Z,2.27
2023-01-28T20:44:38.974Z,2.03
2023-01-28T20:47:27.603Z,2.60
2023-01-28T20:50:15.448Z,2.60
2023-01-28T20:53:03.370Z,2.70
2023-01-28T20:55:57.055Z,2.87
2023-01-28T20:58:44.842Z,3.20
2023-01-28T21:01:33.577Z,3.50
2023-01-28T21:04:22.404Z,3.20
2023-01-28T21:07:12.640Z,3.27
2023-01-28T21:10:02.373Z,3.10
2023-01-28T21:12:50.177Z,2.70
2023-01-28T21:15:37.577Z,2.90
2023-01-28T21:18:25.154Z,2.67
2023-01-28T21:21:15.839Z,2.40
2023-01-28T21:24:03.441Z,2.50
2023-01-28T21:26:51.042Z,2.33
2023-01-28T21:29:38.391Z,3.03
2023-01-28T21:32:27.552Z,2.80
2023-01-28T21:35:15.014Z,3.30
2023-01-28T21:38:03.758Z,2.80
2023-01-28T21:40:51.317Z,3.03
2023-01-28T21:43:38.852Z,2.90
2023-01-28T21:46:26.984Z,2.23
2023-01-28T21:49:14.425Z,2.83
2023-01-28T21:52:01.694Z,2.57
2023-01-28T21:54:50.354Z,2.87
2023-01-28T21:57:37.892Z,3.03
2023-01-28T22:00:25.221Z,2.70
2023-01-28T22:03:12.590Z,2.47
2023-01-28T22:05:59.879Z,2.60
2023-01-28T22:08:47.317Z,2.10
2023-01-28T22:11:35.965Z,2.83
2023-01-28T22:14:23.662Z,2.27
2023-01-28T22:17:12.104Z,2.37
2023-01-28T22:19:59.418Z,2.53
2023-01-28T22:22:46.885Z,2.23
2023-01-28T22:25:36.404Z,2.17
2023-01-28T22:28:25.313Z,2.47
2023-01-28T22:31:13.673Z,2.40
2023-01-28T22:34:01.194Z,2.43
2023-01-28T22:36:48.787Z,2.57
2023-01-28T22:39:36.578Z,2.60
2023-01-28T22:42:23.941Z,2.77
2023-01-28T22:45:13.246Z,2.60
2023-01-28T22:48:00.575Z,2.60
2023-01-28T22:50:47.981Z,2.70
2023-01-28T22:53:35.586Z,2.20
2023-01-28T22:56:24.470Z,2.53
2023-01-28T22:59:12.692Z,2.17
2023-01-28T23:02:01.592Z,2.30
2023-01-28T23:04:50.345Z,2.97
2023-01-28T23:07:38.045Z,2.43
2023-01-28T23:10:25.278Z,2.90
2023-01-28T23:13:12.647Z,2.97
2023-01-28T23:16:17.492Z,2.50
2023-01-28T23:19:23.705Z,3.20
2023-01-28T23:22:32.538Z,3.17
2023-01-28T23:25:20.475Z,3.03
2023-01-28T23:28:08.030Z,3.13
2023-01-28T23:30:55.503Z,2.93
2023-01-28T23:33:43.077Z,3.30
2023-01-28T23:36:32.124Z,3.13
2023-01-28T23:39:19.664Z,3.20
2023-01-28T23:42:11.009Z,2.90
2023-01-28T23:44:58.646Z,3.00
2023-01-28T23:47:46.274Z,3.00
2023-01-28T23:50:33.802Z,3.43
2023-01-28T23:53:22.391Z,3.20
2023-01-28T23:56:10.350Z,3.60
2023-01-28T23:58:58.069Z,3.23
